This is the latest recevied weather packets stored in our database for station/object K4GSL. If no packets are shown the sender has not sent any weather packets the latest 10 day(s).
| Time | Temp. | Humidity | Pressure | Rain* | Wind** | Luminosity | Snow |
|---|---|---|---|---|---|---|---|
| 1777773241 | 15.56° C | 93% | 1015.4 hPa | 0 mm | - | 14 W/m² | - |
| 1777772936 | 15.56° C | 92% | 1015.4 hPa | 0 mm | - | 10 W/m² | - |
| 1777772634 | 15.56° C | 92% | 1015.4 hPa | 0 mm | - | 10 W/m² | - |
| 1777772332 | 16.11° C | 88% | 1014.8 hPa | 0 mm | - | 7 W/m² | - |
| 1777772028 | 15.56° C | 92% | 1015.4 hPa | 0 mm | - | 5 W/m² | - |
| 1777771725 | 15° C | 96% | 1015.6 hPa | 0 mm | - | 3 W/m² | - |
| 1777771423 | 15° C | 98% | 1015.8 hPa | 0 mm | - | 3 W/m² | - |
| 1777771120 | 15° C | 98% | 1015.8 hPa | 0 mm | - | 3 W/m² | - |
| 1777770817 | 15° C | 99% | 1016 hPa | 0 mm | - | 3 W/m² | - |
| 1777770513 | 15° C | 98% | 1016.4 hPa | 0 mm | - | 3 W/m² | - |
| 1777770211 | 15° C | 98% | 1016.6 hPa | 0 mm | - | 3 W/m² | - |
| 1777769907 | 15° C | 98% | 1016.9 hPa | 0 mm | - | 4 W/m² | - |
| 1777769605 | 15° C | 98% | 1016.5 hPa | 0 mm | - | 4 W/m² | - |
| 1777769301 | 15° C | 98% | 1016.8 hPa | 0 mm | - | 6 W/m² | - |
| 1777768999 | 15° C | 98% | 1016.8 hPa | 0 mm | - | 8 W/m² | - |
| 1777768696 | 15.56° C | 97% | 1016.6 hPa | 0 mm | - | 10 W/m² | - |
| 1777768393 | 15.56° C | 97% | 1016.7 hPa | 0 mm | - | 12 W/m² | - |
| 1777768090 | 15.56° C | 96% | 1016.8 hPa | 0 mm | - | 14 W/m² | - |
| 1777767787 | 16.11° C | 93% | 1016.6 hPa | 0 mm | - | 17 W/m² | - |
| 1777767483 | 16.67° C | 91% | 1016.6 hPa | 0 mm | - | 21 W/m² | - |
| 1777767179 | 17.78° C | 84% | 1016.4 hPa | 0 mm | - | 19 W/m² | - |
| 1777766877 | 18.33° C | 81% | 1016.7 hPa | 0 mm | - | 18 W/m² | - |
| 1777766574 | 18.33° C | 77% | 1016.8 hPa | 0 mm | - | 18 W/m² | - |
| 1777766271 | 18.33° C | 76% | 1016.8 hPa | 0 mm | - | 25 W/m² | - |
| 1777765969 | 18.33° C | 74% | 1016.5 hPa | 0 mm | - | 51 W/m² | - |
* Rain latest hour (hover to see other rain measurements)
** Current wind speed in m/s (hover to see current wind gust speed)